Time;durP1;ratioP1;P1;durP2;ratioP2;P2;SDS_P1;SDS_P2;PMS_P1;PMS_P2;Temp;Humidity;BMP_temperature;BMP_pressure;BME280_temperature;BME280_humidity;BME280_pressure;Samples;Min_cycle;Max_cycle;Signal;HPM_P1;HPM_P2
2022/04/03 00:00:48;;;;;;;24.37;16.30;;;0.60;76.40;;;;;;5047440;28;46363;-63
2022/04/03 00:03:14;;;;;;;21.30;14.00;;;0.60;76.40;;;;;;5060652;28;46550;-65
2022/04/03 00:05:42;;;;;;;21.43;13.80;;;0.60;76.40;;;;;;5061098;28;46373;-65
2022/04/03 00:08:08;;;;;;;23.95;15.18;;;0.60;76.40;;;;;;5060499;28;46450;-64
2022/04/03 00:10:35;;;;;;;22.50;14.18;;;0.50;76.50;;;;;;5060476;28;46485;-66
2022/04/03 00:13:02;;;;;;;19.60;13.77;;;0.50;76.60;;;;;;5061254;28;46516;-65
2022/04/03 00:15:27;;;;;;;22.75;15.45;;;0.50;76.40;;;;;;5061369;28;46972;-65
2022/04/03 00:17:53;;;;;;;25.67;15.33;;;0.50;76.60;;;;;;5061222;28;46301;-64
2022/04/03 00:20:19;;;;;;;19.83;14.20;;;0.50;76.60;;;;;;5060839;28;46440;-64
2022/04/03 00:22:48;;;;;;;18.85;13.35;;;0.50;76.30;;;;;;5061513;28;46584;-65
2022/04/03 00:25:14;;;;;;;19.25;11.85;;;0.50;76.30;;;;;;5062266;28;46394;-65
2022/04/03 00:27:40;;;;;;;20.45;12.50;;;0.50;76.40;;;;;;5063220;28;45938;-66
2022/04/03 00:30:09;;;;;;;17.43;11.00;;;0.40;76.50;;;;;;5063319;28;46356;-65
2022/04/03 00:32:35;;;;;;;16.80;12.50;;;0.30;76.50;;;;;;5064026;28;46203;-64
2022/04/03 00:35:02;;;;;;;22.80;12.20;;;0.30;76.80;;;;;;5061793;28;46377;-66
2022/04/03 00:37:27;;;;;;;24.15;14.85;;;0.30;76.80;;;;;;5061485;28;46305;-64
2022/04/03 00:39:53;;;;;;;21.47;14.33;;;0.30;76.50;;;;;;5062672;28;46471;-66
2022/04/03 00:42:19;;;;;;;26.00;13.93;;;0.40;76.60;;;;;;5063590;28;46601;-65
2022/04/03 00:44:44;;;;;;;25.98;14.13;;;0.40;76.40;;;;;;5061289;28;47154;-64
2022/04/03 00:47:12;;;;;;;19.13;12.77;;;0.40;76.40;;;;;;5062809;28;46520;-64
2022/04/03 00:49:38;;;;;;;19.80;13.30;;;0.40;76.30;;;;;;5059896;28;46428;-64
2022/04/03 00:52:04;;;;;;;21.90;14.25;;;0.40;76.20;;;;;;5061224;28;46405;-64
2022/04/03 00:54:30;;;;;;;19.45;13.27;;;0.40;76.50;;;;;;5062129;28;47513;-64
2022/04/03 00:56:56;;;;;;;21.27;12.90;;;0.30;76.40;;;;;;5060705;28;45790;-64
2022/04/03 00:59:22;;;;;;;23.42;14.00;;;0.20;76.50;;;;;;5057822;28;46410;-65
2022/04/03 01:01:48;;;;;;;20.45;12.13;;;0.30;76.50;;;;;;5058840;28;46395;-65
2022/04/03 01:04:14;;;;;;;20.53;13.80;;;0.30;77.50;;;;;;5059880;28;48698;-65
2022/04/03 01:06:40;;;;;;;23.60;14.32;;;0.30;76.20;;;;;;5062861;28;46646;-65
2022/04/03 01:09:06;;;;;;;18.98;14.07;;;0.40;76.20;;;;;;5059837;28;46442;-64
2022/04/03 01:11:32;;;;;;;19.97;13.20;;;0.40;76.10;;;;;;5049035;28;46347;-64
2022/04/03 01:13:58;;;;;;;22.53;14.10;;;0.40;76.10;;;;;;5057319;28;46437;-65
2022/04/03 01:16:24;;;;;;;22.00;13.50;;;0.50;75.90;;;;;;5058425;28;46363;-64
2022/04/03 01:18:50;;;;;;;22.57;14.73;;;0.50;75.70;;;;;;5059077;28;46431;-64
2022/04/03 01:21:18;;;;;;;22.95;14.80;;;0.60;75.50;;;;;;5061025;28;46294;-67
2022/04/03 01:23:45;;;;;;;25.20;15.60;;;0.60;75.30;;;;;;5062968;28;46359;-65
2022/04/03 01:26:10;;;;;;;23.58;14.63;;;0.60;75.20;;;;;;5061548;28;46504;-66
2022/04/03 01:28:37;;;;;;;21.80;14.17;;;0.60;75.20;;;;;;5061978;28;46682;-65
2022/04/03 01:31:03;;;;;;;23.77;13.35;;;0.60;75.10;;;;;;5063069;28;46434;-63
2022/04/03 01:33:28;;;;;;;22.47;13.70;;;0.60;75.40;;;;;;5061268;28;46374;-65
2022/04/03 01:35:54;;;;;;;19.80;13.50;;;0.60;75.40;;;;;;5060110;28;46566;-65
2022/04/03 01:38:20;;;;;;;23.50;15.23;;;0.60;75.50;;;;;;5061665;28;46394;-66
2022/04/03 01:40:46;;;;;;;20.77;15.03;;;0.60;75.30;;;;;;5057966;28;46422;-65
2022/04/03 01:43:11;;;;;;;21.20;13.67;;;0.70;75.10;;;;;;5059357;28;47195;-64
2022/04/03 01:45:38;;;;;;;20.83;15.27;;;0.70;75.00;;;;;;5062410;28;46589;-64
2022/04/03 01:48:05;;;;;;;20.13;14.75;;;0.80;74.70;;;;;;5054914;28;46453;-65
2022/04/03 01:50:31;;;;;;;24.33;14.32;;;0.80;74.40;;;;;;5061248;28;46670;-65
2022/04/03 01:52:57;;;;;;;23.00;14.90;;;0.90;74.30;;;;;;5061576;28;46579;-64
2022/04/03 01:55:25;;;;;;;20.03;15.10;;;0.80;74.30;;;;;;5057100;28;46408;-63
2022/04/03 01:57:52;;;;;;;24.80;15.27;;;0.80;74.60;;;;;;5059852;28;46435;-65
2022/04/03 02:00:18;;;;;;;21.25;14.70;;;0.80;74.70;;;;;;5053178;28;46416;-66
2022/04/03 02:02:45;;;;;;;21.45;14.23;;;0.70;74.70;;;;;;5062333;28;46374;-65
2022/04/03 02:05:11;;;;;;;22.88;14.30;;;0.70;74.90;;;;;;5062224;28;46438;-64
2022/04/03 02:07:36;;;;;;;21.80;14.07;;;0.70;74.90;;;;;;5060080;28;46815;-65
2022/04/03 02:10:04;;;;;;;23.13;13.87;;;0.70;74.70;;;;;;5061470;28;46637;-67
2022/04/03 02:12:30;;;;;;;22.75;13.63;;;0.70;74.50;;;;;;5057065;28;46403;-64
2022/04/03 02:14:56;;;;;;;24.60;14.27;;;0.70;74.60;;;;;;5061898;28;46671;-64
2022/04/03 02:17:21;;;;;;;21.33;14.60;;;0.70;74.70;;;;;;5057521;28;46373;-65
2022/04/03 02:19:47;;;;;;;20.23;12.50;;;0.90;75.80;;;;;;5059589;28;46400;-65
2022/04/03 02:22:14;;;;;;;21.40;14.80;;;0.80;74.30;;;;;;5059921;28;46398;-65
2022/04/03 02:24:40;;;;;;;20.00;13.10;;;0.70;74.40;;;;;;5056749;28;46389;-63
2022/04/03 02:27:06;;;;;;;15.93;11.88;;;0.70;74.40;;;;;;5060315;28;46375;-63
2022/04/03 02:29:32;;;;;;;20.83;12.95;;;0.70;74.70;;;;;;5048768;28;46613;-64
2022/04/03 02:31:58;;;;;;;17.27;11.23;;;0.60;74.90;;;;;;5060527;28;47125;-67
2022/04/03 02:34:26;;;;;;;19.73;13.32;;;0.50;75.20;;;;;;5057542;28;45868;-65
2022/04/03 02:36:52;;;;;;;19.08;13.73;;;0.50;75.20;;;;;;5058699;28;46379;-68
2022/04/03 02:39:17;;;;;;;20.38;12.82;;;0.50;76.40;;;;;;5060992;28;46641;-63
2022/04/03 02:41:43;;;;;;;21.27;13.50;;;0.60;74.80;;;;;;5061615;28;47009;-64
2022/04/03 02:44:09;;;;;;;20.90;12.13;;;0.60;74.70;;;;;;5059556;28;46417;-64
2022/04/03 02:46:35;;;;;;;18.23;12.40;;;0.60;74.70;;;;;;5060748;28;46369;-63
2022/04/03 02:49:01;;;;;;;18.87;12.87;;;0.60;74.90;;;;;;5060849;28;46421;-64
2022/04/03 02:51:26;;;;;;;19.83;12.30;;;0.50;74.80;;;;;;5056829;28;46348;-66
2022/04/03 02:53:52;;;;;;;19.77;11.93;;;0.50;75.10;;;;;;5061478;28;46382;-63
2022/04/03 02:56:17;;;;;;;19.37;12.50;;;0.40;75.30;;;;;;5061499;28;46259;-65
2022/04/03 02:58:43;;;;;;;19.20;13.00;;;0.50;75.20;;;;;;5060846;28;47086;-66
2022/04/03 03:01:09;;;;;;;19.97;12.80;;;0.50;75.10;;;;;;5061440;28;46460;-65
2022/04/03 03:03:34;;;;;;;20.57;12.93;;;0.50;75.00;;;;;;5061070;28;46403;-64
2022/04/03 03:06:01;;;;;;;20.83;12.70;;;0.50;74.90;;;;;;5059924;28;46335;-65
2022/04/03 03:08:26;;;;;;;20.33;13.50;;;0.60;74.70;;;;;;5059921;28;46338;-64
2022/04/03 03:10:52;;;;;;;19.60;13.60;;;0.60;74.80;;;;;;5058862;28;46188;-67
2022/04/03 03:13:18;;;;;;;24.23;14.40;;;0.60;74.70;;;;;;5060187;28;46447;-64
2022/04/03 03:15:44;;;;;;;21.55;13.90;;;0.60;74.70;;;;;;5058689;28;46484;-66
2022/04/03 03:18:09;;;;;;;27.83;13.93;;;0.60;74.50;;;;;;5056759;28;46483;-65
2022/04/03 03:20:35;;;;;;;21.90;13.53;;;0.60;74.60;;;;;;5058434;28;46380;-66
2022/04/03 03:23:00;;;;;;;21.57;13.10;;;0.60;74.60;;;;;;5060977;28;46464;-67
2022/04/03 03:25:27;;;;;;;20.43;12.23;;;0.70;74.70;;;;;;5058865;28;46403;-66
2022/04/03 03:27:53;;;;;;;21.63;13.73;;;0.60;74.60;;;;;;5057241;28;46406;-69
2022/04/03 03:30:19;;;;;;;26.20;13.00;;;0.60;74.50;;;;;;5064996;28;46229;-65
2022/04/03 03:32:45;;;;;;;19.23;12.97;;;0.60;74.50;;;;;;5061132;28;46405;-65
2022/04/03 03:35:10;;;;;;;18.60;12.30;;;0.60;74.60;;;;;;5060667;28;46432;-65
2022/04/03 03:37:37;;;;;;;18.70;12.37;;;0.60;74.70;;;;;;5060518;28;46052;-63
2022/04/03 03:40:06;;;;;;;19.35;12.95;;;0.60;74.60;;;;;;5055264;28;46447;-64
2022/04/03 03:42:32;;;;;;;23.13;13.30;;;0.60;74.40;;;;;;5060660;28;46491;-65
2022/04/03 03:44:59;;;;;;;16.83;11.10;;;0.60;74.40;;;;;;5060933;28;46442;-67
2022/04/03 03:47:25;;;;;;;17.33;11.55;;;0.60;74.30;;;;;;5060267;28;46397;-65
2022/04/03 03:49:51;;;;;;;18.58;12.07;;;0.60;75.00;;;;;;5057320;28;46271;-63
2022/04/03 03:52:16;;;;;;;19.70;12.47;;;0.60;74.50;;;;;;5059188;28;46306;-64
2022/04/03 03:54:43;;;;;;;17.10;12.03;;;0.60;74.40;;;;;;5061044;28;46542;-64
2022/04/03 03:57:09;;;;;;;18.48;12.70;;;0.60;75.00;;;;;;5059197;28;46639;-67
2022/04/03 03:59:34;;;;;;;20.83;12.53;;;0.60;74.70;;;;;;5057151;28;46343;-65
2022/04/03 04:02:01;;;;;;;18.57;12.30;;;0.60;74.40;;;;;;5060496;28;46437;-64
2022/04/03 04:04:26;;;;;;;19.90;12.20;;;0.60;74.30;;;;;;5057513;28;46416;-63
2022/04/03 04:06:52;;;;;;;18.27;12.13;;;0.60;74.20;;;;;;5058678;28;46367;-64
2022/04/03 04:09:18;;;;;;;19.15;12.57;;;0.60;74.20;;;;;;5055640;28;46896;-65
2022/04/03 04:11:44;;;;;;;24.57;12.03;;;0.60;74.30;;;;;;5055899;28;46555;-66
2022/04/03 04:14:09;;;;;;;21.77;12.20;;;0.60;74.30;;;;;;5061500;28;46364;-63
2022/04/03 04:16:35;;;;;;;15.47;10.97;;;0.50;74.40;;;;;;5059395;28;46612;-65
2022/04/03 04:19:00;;;;;;;20.50;12.97;;;0.60;74.60;;;;;;5057068;28;46386;-65
2022/04/03 04:21:26;;;;;;;17.43;12.03;;;0.50;74.40;;;;;;5053220;28;46385;-65
2022/04/03 04:23:52;;;;;;;16.57;11.43;;;0.60;74.30;;;;;;5056357;28;46250;-63
2022/04/03 04:26:19;;;;;;;19.53;12.50;;;0.70;74.00;;;;;;5060145;28;46503;-65
2022/04/03 04:28:47;;;;;;;21.08;12.32;;;0.80;73.70;;;;;;5058731;28;47257;-64
2022/04/03 04:31:13;;;;;;;20.92;13.30;;;0.80;73.50;;;;;;5055049;28;46320;-64
2022/04/03 04:33:38;;;;;;;21.87;14.10;;;0.90;73.30;;;;;;5060254;28;45737;-62
2022/04/03 04:36:06;;;;;;;24.40;13.53;;;1.00;73.10;;;;;;5058532;28;46404;-63
2022/04/03 04:38:32;;;;;;;22.38;12.95;;;1.00;72.80;;;;;;5058365;28;47304;-64
2022/04/03 04:40:57;;;;;;;22.70;12.67;;;1.00;72.90;;;;;;5060483;28;46613;-64
2022/04/03 04:43:23;;;;;;;19.27;12.73;;;1.00;73.00;;;;;;5060426;28;46436;-64
2022/04/03 04:45:48;;;;;;;22.73;13.40;;;1.00;72.80;;;;;;5060345;28;46278;-64
2022/04/03 04:48:14;;;;;;;21.10;13.03;;;1.00;72.90;;;;;;5058278;28;46409;-64
2022/04/03 04:50:39;;;;;;;19.20;12.07;;;1.00;72.80;;;;;;5060276;28;46341;-64
2022/04/03 04:53:05;;;;;;;22.73;13.87;;;1.00;72.90;;;;;;5057203;28;46381;-64
2022/04/03 04:55:31;;;;;;;18.23;11.77;;;1.10;73.30;;;;;;5050976;28;46387;-64
2022/04/03 04:57:57;;;;;;;18.90;12.73;;;1.00;73.00;;;;;;5059335;28;46484;-68
2022/04/03 05:00:25;;;;;;;20.83;12.70;;;1.00;73.30;;;;;;5060837;28;45749;-64
2022/04/03 05:02:51;;;;;;;23.27;13.35;;;0.80;73.60;;;;;;5050178;28;46304;-66
2022/04/03 05:05:18;;;;;;;19.90;13.10;;;0.80;73.90;;;;;;5060438;28;46350;-64
2022/04/03 05:07:45;;;;;;;23.40;13.63;;;0.90;73.80;;;;;;5061684;28;46351;-66
2022/04/03 05:10:13;;;;;;;19.00;12.50;;;0.90;73.60;;;;;;5060146;28;45965;-64
2022/04/03 05:12:39;;;;;;;18.85;12.95;;;0.80;73.40;;;;;;5062780;28;46501;-65
2022/04/03 05:15:08;;;;;;;16.55;11.05;;;0.80;73.80;;;;;;5060969;28;46368;-65
2022/04/03 05:17:34;;;;;;;21.95;12.77;;;0.80;73.60;;;;;;5061199;28;46137;-64
2022/04/03 05:19:59;;;;;;;17.48;12.30;;;0.80;73.80;;;;;;5062155;28;46527;-63
2022/04/03 05:22:26;;;;;;;18.00;11.80;;;0.80;73.80;;;;;;5063038;28;46483;-64
2022/04/03 05:24:53;;;;;;;21.63;13.27;;;0.80;73.90;;;;;;5061264;28;46412;-64
2022/04/03 05:27:19;;;;;;;21.40;13.10;;;0.80;74.10;;;;;;5059758;28;46388;-66
2022/04/03 05:29:46;;;;;;;19.73;12.15;;;0.70;73.90;;;;;;5061091;28;46272;-67
2022/04/03 05:32:12;;;;;;;18.05;11.50;;;0.70;74.10;;;;;;5059268;28;46318;-64
2022/04/03 05:34:38;;;;;;;19.17;11.30;;;0.70;74.10;;;;;;5059834;28;46406;-65
2022/04/03 05:37:03;;;;;;;16.35;11.52;;;0.70;74.10;;;;;;5060909;28;47193;-66
2022/04/03 05:39:29;;;;;;;21.17;12.10;;;0.70;74.10;;;;;;5060546;28;46382;-66
2022/04/03 05:41:55;;;;;;;19.10;12.03;;;0.90;74.00;;;;;;5059458;28;46453;-65
2022/04/03 05:44:24;;;;;;;19.50;13.63;;;1.00;73.60;;;;;;5060433;28;46461;-63
2022/04/03 05:46:51;;;;;;;22.08;13.27;;;1.10;74.40;;;;;;5059401;28;46398;-67
2022/04/03 05:49:17;;;;;;;23.23;12.45;;;1.10;72.90;;;;;;5060146;28;46481;-65
2022/04/03 05:51:43;;;;;;;19.33;12.18;;;1.30;72.90;;;;;;5059602;28;46526;-65
2022/04/03 05:54:08;;;;;;;23.00;13.97;;;1.20;72.70;;;;;;5057723;28;45890;-64
2022/04/03 05:56:34;;;;;;;23.93;13.17;;;1.30;72.90;;;;;;5060767;28;46367;-63
2022/04/03 05:59:00;;;;;;;20.00;12.43;;;1.40;72.40;;;;;;5055878;28;46414;-64
2022/04/03 06:01:26;;;;;;;26.20;14.32;;;1.40;72.50;;;;;;5061777;28;45955;-65
2022/04/03 06:03:52;;;;;;;21.75;12.50;;;1.60;72.50;;;;;;5060031;28;46443;-64
2022/04/03 06:06:18;;;;;;;17.37;11.93;;;1.80;72.10;;;;;;5059806;28;46393;-67
2022/04/03 06:08:44;;;;;;;19.23;11.98;;;1.80;71.80;;;;;;5062345;28;46444;-65
2022/04/03 06:11:10;;;;;;;19.17;11.90;;;1.80;71.70;;;;;;5059268;28;45800;-67
2022/04/03 06:13:36;;;;;;;20.13;12.07;;;2.00;71.60;;;;;;5062872;28;46083;-67
2022/04/03 06:16:02;;;;;;;18.52;11.80;;;1.90;71.00;;;;;;5062381;28;46306;-64
2022/04/03 06:18:28;;;;;;;18.40;11.40;;;1.70;71.60;;;;;;5058707;28;45900;-65
2022/04/03 06:20:54;;;;;;;22.70;11.25;;;1.60;72.30;;;;;;5065402;28;46361;-66
2022/04/03 06:23:22;;;;;;;17.10;12.30;;;1.50;72.60;;;;;;5062581;28;46385;-64
2022/04/03 06:25:51;;;;;;;24.75;11.23;;;1.80;72.50;;;;;;5060840;28;46443;-63
2022/04/03 06:28:17;;;;;;;17.35;11.65;;;1.90;71.30;;;;;;5059853;28;46268;-65
2022/04/03 06:30:43;;;;;;;18.27;10.70;;;2.00;71.10;;;;;;5062631;28;46357;-66
2022/04/03 06:33:09;;;;;;;16.40;11.00;;;2.20;71.20;;;;;;5062628;28;46334;-63
2022/04/03 06:35:34;;;;;;;20.47;11.90;;;2.30;71.30;;;;;;5060484;28;47398;-63
2022/04/03 06:38:00;;;;;;;16.70;11.10;;;2.60;71.60;;;;;;5055808;28;46370;-64
2022/04/03 06:40:26;;;;;;;14.60;9.77;;;2.70;70.40;;;;;;5062110;28;46410;-64
2022/04/03 06:42:52;;;;;;;14.77;9.35;;;2.50;70.50;;;;;;5061312;28;46328;-64
2022/04/03 06:45:18;;;;;;;31.08;16.75;;;2.40;71.40;;;;;;5060747;28;47134;-66
2022/04/03 06:47:44;;;;;;;18.73;10.60;;;2.30;71.30;;;;;;5057920;28;46490;-65
2022/04/03 06:50:09;;;;;;;28.93;15.33;;;2.40;71.20;;;;;;5059295;28;46433;-67
2022/04/03 06:52:36;;;;;;;31.13;18.23;;;2.30;71.30;;;;;;5062628;28;46456;-65
2022/04/03 06:55:03;;;;;;;18.70;12.73;;;2.40;71.40;;;;;;5060373;28;47147;-65
2022/04/03 06:57:29;;;;;;;16.48;10.68;;;2.40;70.50;;;;;;5056188;28;46451;-68
2022/04/03 06:59:54;;;;;;;21.63;12.47;;;2.30;70.80;;;;;;5061587;28;46462;-63
2022/04/03 07:02:20;;;;;;;372.73;145.37;;;2.20;71.20;;;;;;5062477;28;46326;-65
2022/04/03 07:04:45;;;;;;;128.33;58.17;;;2.10;71.20;;;;;;5058449;28;47041;-65
2022/04/03 07:07:11;;;;;;;19.20;12.83;;;2.10;71.10;;;;;;5054659;28;46583;-63
2022/04/03 07:09:40;;;;;;;61.80;31.63;;;2.20;70.60;;;;;;5060177;28;46401;-65
2022/04/03 07:12:07;;;;;;;55.88;31.30;;;2.10;71.10;;;;;;5061223;28;46358;-64
2022/04/03 07:14:32;;;;;;;17.27;10.85;;;2.20;71.20;;;;;;5053289;28;48382;-63
2022/04/03 07:16:58;;;;;;;15.30;10.10;;;2.10;71.10;;;;;;5056539;28;46314;-66
2022/04/03 07:19:24;;;;;;;14.10;9.97;;;2.00;71.10;;;;;;5047271;28;46425;-64
2022/04/03 07:21:50;;;;;;;17.85;11.02;;;2.00;71.10;;;;;;5057410;28;46551;-67
2022/04/03 07:24:17;;;;;;;25.40;16.17;;;2.20;71.20;;;;;;5049887;28;46946;-64
2022/04/03 07:26:43;;;;;;;31.88;18.73;;;2.40;70.20;;;;;;5050367;28;46379;-67
2022/04/03 07:29:09;;;;;;;22.35;13.90;;;2.60;69.50;;;;;;5052073;28;46317;-65
2022/04/03 07:31:34;;;;;;;16.93;10.40;;;2.90;69.10;;;;;;5057333;28;46310;-65
2022/04/03 07:34:00;;;;;;;15.90;10.30;;;3.10;69.00;;;;;;5059893;28;47120;-65
2022/04/03 07:36:26;;;;;;;16.77;10.60;;;2.90;69.10;;;;;;5055189;28;46284;-67
2022/04/03 07:38:52;;;;;;;18.27;11.57;;;2.80;69.60;;;;;;5061689;28;46450;-65
2022/04/03 07:41:19;;;;;;;15.23;10.40;;;2.90;69.60;;;;;;5061771;28;46362;-68
2022/04/03 07:43:44;;;;;;;16.33;10.70;;;2.80;69.50;;;;;;5060508;28;47048;-64
2022/04/03 07:46:15;;;;;;;15.90;9.90;;;2.80;69.30;;;;;;5061232;28;45834;-67
2022/04/03 07:48:40;;;;;;;13.40;8.80;;;2.60;69.50;;;;;;5059697;28;46298;-67
2022/04/03 07:51:06;;;;;;;13.37;8.70;;;2.50;69.50;;;;;;5061531;28;46540;-65
2022/04/03 07:53:32;;;;;;;13.00;8.27;;;2.30;69.60;;;;;;5048635;28;48389;-63
2022/04/03 07:55:57;;;;;;;12.00;8.67;;;2.30;69.60;;;;;;5059373;28;46531;-67
2022/04/03 07:58:23;;;;;;;11.87;6.80;;;2.30;69.80;;;;;;5060383;28;46489;-64
2022/04/03 08:00:48;;;;;;;11.50;8.47;;;2.20;69.50;;;;;;5058267;28;46448;-63
2022/04/03 08:03:14;;;;;;;13.73;8.97;;;2.10;69.50;;;;;;5060896;28;46430;-65
2022/04/03 08:05:40;;;;;;;12.88;8.38;;;2.10;69.40;;;;;;5059487;28;46397;-64
2022/04/03 08:08:06;;;;;;;14.57;8.00;;;2.00;68.90;;;;;;5059263;28;46645;-64
2022/04/03 08:10:32;;;;;;;11.67;6.87;;;2.10;68.80;;;;;;5056556;28;46361;-65
2022/04/03 08:12:57;;;;;;;12.80;8.17;;;2.40;68.10;;;;;;5058131;28;46503;-68
2022/04/03 08:15:24;;;;;;;15.20;8.77;;;2.60;67.40;;;;;;5057760;28;46434;-65
2022/04/03 08:17:50;;;;;;;14.27;9.20;;;2.80;66.90;;;;;;5054195;28;45842;-65
2022/04/03 08:20:17;;;;;;;16.27;9.63;;;3.10;66.30;;;;;;5059830;28;45989;-64
2022/04/03 08:22:45;;;;;;;12.52;9.07;;;3.50;65.60;;;;;;5055744;28;46346;-65
2022/04/03 08:25:12;;;;;;;13.52;8.48;;;3.40;65.50;;;;;;5055564;28;46672;-65
2022/04/03 08:27:54;;;;;;;13.15;8.35;;;3.60;65.10;;;;;;5058385;28;46093;-65
2022/04/03 08:30:21;;;;;;;8.93;6.80;;;3.50;64.40;;;;;;5056250;28;46275;-65
2022/04/03 08:32:47;;;;;;;14.15;8.80;;;3.30;64.20;;;;;;5057873;28;47329;-64
2022/04/03 08:35:14;;;;;;;9.40;6.70;;;3.20;64.60;;;;;;5060211;28;46365;-66
2022/04/03 08:37:40;;;;;;;10.65;6.28;;;3.00;64.70;;;;;;5059527;28;46473;-64
2022/04/03 08:40:07;;;;;;;10.55;7.25;;;2.90;65.10;;;;;;5063165;28;46354;-65
2022/04/03 08:42:36;;;;;;;11.23;7.68;;;3.10;64.60;;;;;;5061230;28;46351;-64
2022/04/03 08:45:11;;;;;;;11.13;7.60;;;3.40;64.00;;;;;;5060841;28;45994;-64
2022/04/03 08:47:48;;;;;;;12.05;8.30;;;3.40;63.50;;;;;;5059925;28;46561;-65
2022/04/03 08:50:16;;;;;;;8.75;6.05;;;3.50;62.90;;;;;;5060250;28;46467;-65
2022/04/03 08:52:46;;;;;;;14.95;9.15;;;3.60;61.70;;;;;;5061389;28;46320;-63
2022/04/03 08:55:13;;;;;;;10.45;7.03;;;3.60;62.10;;;;;;5057942;28;46431;-65
2022/04/03 08:57:39;;;;;;;11.90;6.90;;;3.60;62.10;;;;;;5048439;28;46313;-63
2022/04/03 09:00:06;;;;;;;12.07;7.50;;;3.70;62.40;;;;;;5061637;28;46658;-67
2022/04/03 09:02:32;;;;;;;12.90;7.60;;;3.60;61.90;;;;;;5058209;28;46486;-63
2022/04/03 09:04:57;;;;;;;9.70;6.60;;;3.70;61.90;;;;;;5061690;28;45961;-64
2022/04/03 09:07:23;;;;;;;10.60;7.23;;;3.90;61.20;;;;;;5061455;28;46449;-66
2022/04/03 09:10:08;;;;;;;11.93;7.47;;;3.90;61.00;;;;;;5061474;28;46527;-64
2022/04/03 09:12:43;;;;;;;9.32;6.38;;;4.20;60.40;;;;;;5060823;28;46003;-64
2022/04/03 09:15:17;;;;;;;13.13;7.40;;;4.30;60.10;;;;;;5060683;28;46572;-65
2022/04/03 09:17:49;;;;;;;9.88;7.10;;;4.30;59.80;;;;;;5058146;28;46311;-63
2022/04/03 09:20:17;;;;;;;11.60;6.60;;;4.20;59.40;;;;;;5059996;28;46388;-64
2022/04/03 09:22:45;;;;;;;13.82;6.22;;;4.40;59.70;;;;;;5058986;28;46676;-65
2022/04/03 09:25:14;;;;;;;6.95;5.50;;;4.40;59.10;;;;;;5054101;28;46379;-68
2022/04/03 09:27:51;;;;;;;8.20;5.97;;;4.50;58.50;;;;;;5061924;28;46397;-67
2022/04/03 09:30:19;;;;;;;9.67;6.43;;;4.50;58.60;;;;;;5061475;28;46441;-65
2022/04/03 09:32:56;;;;;;;10.30;6.83;;;4.50;58.80;;;;;;5059424;28;46586;-71
2022/04/03 09:35:24;;;;;;;9.50;6.85;;;4.90;58.00;;;;;;5060328;28;46431;-66
2022/04/03 09:38:11;;;;;;;14.55;6.85;;;4.80;56.50;;;;;;5056786;28;46513;-64
2022/04/03 09:40:40;;;;;;;13.00;6.67;;;4.80;57.40;;;;;;5057813;28;46495;-66
2022/04/03 09:43:14;;;;;;;7.40;5.30;;;5.20;57.10;;;;;;5051108;28;46376;-64
2022/04/03 09:46:00;;;;;;;10.40;7.30;;;5.40;56.20;;;;;;5056215;28;46419;-66
2022/04/03 09:48:34;;;;;;;7.73;6.33;;;5.20;56.10;;;;;;5061001;28;46274;-69
2022/04/03 09:51:14;;;;;;;6.97;5.30;;;5.20;56.50;;;;;;5059288;28;46466;-67
2022/04/03 09:53:52;;;;;;;6.97;4.90;;;5.20;56.30;;;;;;5054981;28;47261;-67
2022/04/03 09:56:23;;;;;;;10.10;5.63;;;5.30;55.60;;;;;;5061385;28;46308;-65
2022/04/03 09:58:52;;;;;;;11.68;5.40;;;5.20;53.60;;;;;;5053593;28;45837;-65
2022/04/03 10:01:40;;;;;;;9.77;6.50;;;5.20;53.70;;;;;;5060693;28;46748;-64
2022/04/03 10:04:09;;;;;;;7.90;5.43;;;5.20;53.70;;;;;;5062561;28;47018;-67
2022/04/03 10:06:35;;;;;;;7.75;4.68;;;4.80;52.40;;;;;;5055309;28;45822;-67
2022/04/03 10:09:02;;;;;;;6.17;4.47;;;4.60;52.00;;;;;;5062417;28;46416;-65
2022/04/03 10:11:29;;;;;;;8.07;4.93;;;4.60;53.30;;;;;;5063800;28;46532;-64
2022/04/03 10:13:55;;;;;;;7.40;4.60;;;4.70;53.50;;;;;;5061429;28;46970;-65
2022/04/03 10:16:21;;;;;;;7.60;4.77;;;4.60;52.40;;;;;;5062371;28;46390;-64
2022/04/03 10:18:49;;;;;;;8.93;5.37;;;4.40;51.90;;;;;;5059948;28;46437;-65
2022/04/03 10:21:24;;;;;;;7.72;4.28;;;4.50;51.80;;;;;;5061411;28;46339;-64
2022/04/03 10:23:52;;;;;;;5.40;3.10;;;4.70;51.10;;;;;;5061714;28;47041;-65
2022/04/03 10:26:20;;;;;;;3.97;2.80;;;4.70;49.50;;;;;;5057248;28;46404;-65
2022/04/03 10:28:53;;;;;;;7.03;3.78;;;4.90;48.30;;;;;;5059327;28;46525;-64
2022/04/03 10:31:19;;;;;;;4.53;3.30;;;5.10;48.50;;;;;;5062360;28;46287;-64
2022/04/03 10:33:49;;;;;;;5.27;3.70;;;5.50;48.80;;;;;;5058968;28;46190;-65
2022/04/03 10:36:23;;;;;;;6.50;4.28;;;6.00;48.10;;;;;;5059412;28;46397;-64
2022/04/03 10:39:06;;;;;;;11.00;3.57;;;6.60;47.40;;;;;;5059451;28;46395;-65
2022/04/03 10:41:35;;;;;;;5.47;3.60;;;7.00;46.00;;;;;;5059295;28;46373;-67
2022/04/03 10:44:19;;;;;;;7.20;4.13;;;6.50;46.20;;;;;;5061577;28;46748;-64
2022/04/03 10:47:03;;;;;;;5.43;3.80;;;6.10;46.60;;;;;;5060144;28;46328;-64
2022/04/03 10:49:46;;;;;;;4.90;3.10;;;5.90;46.20;;;;;;5060724;28;46508;-65
2022/04/03 10:52:24;;;;;;;5.57;3.30;;;5.90;46.40;;;;;;5060216;28;45891;-64
2022/04/03 10:54:57;;;;;;;7.20;3.43;;;6.20;46.80;;;;;;5060409;28;47025;-65
2022/04/03 10:57:43;;;;;;;5.47;3.20;;;6.10;46.70;;;;;;5060346;28;46402;-67
2022/04/03 11:00:12;;;;;;;5.40;3.60;;;5.50;47.00;;;;;;5058761;28;46457;-67
2022/04/03 11:02:41;;;;;;;7.00;3.30;;;5.00;47.50;;;;;;5058895;28;46382;-64
2022/04/03 11:05:22;;;;;;;4.97;3.40;;;5.20;48.50;;;;;;5061974;28;47119;-65
2022/04/03 11:07:49;;;;;;;5.83;3.03;;;5.70;46.70;;;;;;5060736;28;46377;-64
2022/04/03 11:10:15;;;;;;;9.30;5.47;;;6.20;45.90;;;;;;5056623;28;46410;-63
2022/04/03 11:12:53;;;;;;;9.23;5.90;;;6.90;44.70;;;;;;5051476;28;46620;-64
2022/04/03 11:15:20;;;;;;;7.07;4.00;;;7.10;43.40;;;;;;5057606;28;46363;-63
2022/04/03 11:17:54;;;;;;;6.30;4.33;;;7.50;43.00;;;;;;5057930;28;46489;-66
2022/04/03 11:20:37;;;;;;;4.77;3.80;;;7.10;42.90;;;;;;5056678;28;46503;-65
2022/04/03 11:23:04;;;;;;;5.97;3.73;;;6.90;43.10;;;;;;5060860;28;46392;-65
2022/04/03 11:25:30;;;;;;;4.90;3.63;;;6.70;43.40;;;;;;5060300;28;46335;-64
2022/04/03 11:27:56;;;;;;;7.60;4.07;;;6.80;43.30;;;;;;5060831;28;46394;-65
2022/04/03 11:30:22;;;;;;;7.17;3.33;;;6.10;43.80;;;;;;5059332;28;46484;-64
2022/04/03 11:32:51;;;;;;;5.13;3.13;;;5.60;44.40;;;;;;5057748;28;46411;-65
2022/04/03 11:35:35;;;;;;;7.43;3.83;;;5.60;44.90;;;;;;5058564;28;46691;-67
2022/04/03 11:38:00;;;;;;;6.43;3.93;;;6.10;43.40;;;;;;5058597;28;46606;-65
2022/04/03 11:40:28;;;;;;;7.53;4.07;;;6.40;43.30;;;;;;5059387;28;46288;-65
2022/04/03 11:43:07;;;;;;;6.27;4.00;;;6.90;43.30;;;;;;5056701;28;46428;-65
2022/04/03 11:45:33;;;;;;;5.30;3.47;;;7.30;41.90;;;;;;5056983;28;46651;-65
2022/04/03 11:48:19;;;;;;;4.70;3.33;;;7.20;42.10;;;;;;5052399;28;46041;-67
2022/04/03 11:50:48;;;;;;;6.70;3.43;;;6.50;40.50;;;;;;5060082;28;46457;-65
2022/04/03 11:53:13;;;;;;;5.23;3.50;;;5.90;40.90;;;;;;5057787;28;46489;-64
2022/04/03 11:55:40;;;;;;;5.50;3.07;;;5.80;42.30;;;;;;5055197;28;46315;-64
2022/04/03 11:58:06;;;;;;;8.60;2.63;;;5.80;42.60;;;;;;5059534;28;46485;-65
2022/04/03 12:00:32;;;;;;;8.43;3.60;;;5.80;42.70;;;;;;5060193;28;46592;-67
2022/04/03 12:02:58;;;;;;;9.33;2.90;;;5.70;42.60;;;;;;5057951;28;46315;-66
2022/04/03 12:05:24;;;;;;;5.97;3.93;;;5.60;41.60;;;;;;5051563;28;46449;-64
2022/04/03 12:07:50;;;;;;;4.67;3.00;;;5.70;41.20;;;;;;5058878;28;46492;-67
2022/04/03 12:10:26;;;;;;;4.87;3.43;;;5.50;41.20;;;;;;5057723;28;46429;-65
2022/04/03 12:12:54;;;;;;;7.23;4.30;;;5.50;41.50;;;;;;5057405;28;46469;-65
2022/04/03 12:15:22;;;;;;;10.53;3.30;;;5.50;40.90;;;;;;5054644;28;46356;-64
2022/04/03 12:17:54;;;;;;;13.50;8.17;;;5.80;41.40;;;;;;5053008;28;46501;-63
2022/04/03 12:20:20;;;;;;;7.47;4.30;;;6.00;41.20;;;;;;5055353;28;45879;-65
2022/04/03 12:22:49;;;;;;;6.80;4.17;;;5.80;41.60;;;;;;5060884;28;46584;-67
2022/04/03 12:25:16;;;;;;;6.63;3.50;;;5.60;41.00;;;;;;5056368;28;47157;-69
2022/04/03 12:27:41;;;;;;;12.57;5.40;;;5.40;41.90;;;;;;5057358;28;46464;-64
2022/04/03 12:30:09;;;;;;;4.23;2.90;;;5.50;42.20;;;;;;5053388;28;46414;-66
2022/04/03 12:32:36;;;;;;;3.30;2.43;;;5.70;41.60;;;;;;5054571;28;46480;-64
2022/04/03 12:35:10;;;;;;;6.03;3.07;;;5.60;39.60;;;;;;5056092;28;47383;-69
2022/04/03 12:37:38;;;;;;;4.67;3.13;;;5.60;40.40;;;;;;5060629;28;46368;-66
2022/04/03 12:40:06;;;;;;;8.10;3.33;;;5.70;41.90;;;;;;5058973;28;46354;-65
2022/04/03 12:42:38;;;;;;;3.50;2.50;;;5.80;40.50;;;;;;5058817;28;46544;-65
2022/04/03 12:45:21;;;;;;;5.00;2.53;;;6.00;40.30;;;;;;5059256;28;46425;-65